Terminal Aerodrome Forecast
Issued by NWS

Home | Current Version | Previous Version | Text Only | Print | Product List | Glossary On
Versions: 1 2 3 4 5 6 7 8 9 10 11 12 13 14 15 16 17
000
FTUS46 KMFR 291152 CCA
TAFOTH
TAF COR
KOTH 291152Z 2912/3012 20020G28KT 5SM -SHRA BKN018 OVC035
      WS020/21045KT
     FM291300 20025G35KT 5SM -SHRA SCT015 BKN030 OVC040
     FM291700 20020G30KT P6SM -SHRA SCT020 BKN035 OVC040
     FM292200 22014G20KT P6SM -SHRA FEW020 BKN035 BKN040
     FM300200 20009G17KT P6SM -SHRA SCT020 BKN025 BKN035
     FM300900 19014G22KT 4SM -RA BKN015 OVC025=

USA.gov is the U.S. government's official web portal to all federal, state and local government web resources and services.